sensor_id;sensor_type;location;lat;lon;timestamp;temperature;humidity
23445;DHT22;11895;48.738;9.320;2022-10-23T00:01:45;11.00;99.90
23445;DHT22;11895;48.738;9.320;2022-10-23T00:04:16;11.00;99.90
23445;DHT22;11895;48.738;9.320;2022-10-23T00:06:48;11.00;99.90
23445;DHT22;11895;48.738;9.320;2022-10-23T00:09:21;10.90;99.90
23445;DHT22;11895;48.738;9.320;2022-10-23T00:11:50;10.90;99.90
23445;DHT22;11895;48.738;9.320;2022-10-23T00:14:20;10.90;99.90
23445;DHT22;11895;48.738;9.320;2022-10-23T00:16:50;10.90;99.90
23445;DHT22;11895;48.738;9.320;2022-10-23T00:19:17;10.90;99.90
23445;DHT22;11895;48.738;9.320;2022-10-23T00:21:44;10.80;99.90
23445;DHT22;11895;48.738;9.320;2022-10-23T00:24:12;11.00;99.90
23445;DHT22;11895;48.738;9.320;2022-10-23T00:26:40;11.10;99.90
23445;DHT22;11895;48.738;9.320;2022-10-23T00:29:09;11.10;99.90
23445;DHT22;11895;48.738;9.320;2022-10-23T00:31:38;11.00;99.90
23445;DHT22;11895;48.738;9.320;2022-10-23T00:34:05;10.80;99.90
23445;DHT22;11895;48.738;9.320;2022-10-23T00:36:35;10.80;99.90
23445;DHT22;11895;48.738;9.320;2022-10-23T00:39:03;10.70;99.90
23445;DHT22;11895;48.738;9.320;2022-10-23T00:41:31;10.70;99.90
23445;DHT22;11895;48.738;9.320;2022-10-23T00:44:04;10.70;99.90
23445;DHT22;11895;48.738;9.320;2022-10-23T00:46:57;10.60;99.90
23445;DHT22;11895;48.738;9.320;2022-10-23T00:49:25;10.60;99.90
23445;DHT22;11895;48.738;9.320;2022-10-23T00:54:35;10.80;99.90
23445;DHT22;11895;48.738;9.320;2022-10-23T00:57:11;10.70;99.90
23445;DHT22;11895;48.738;9.320;2022-10-23T00:59:41;10.70;99.90
23445;DHT22;11895;48.738;9.320;2022-10-23T01:02:09;10.60;99.90
23445;DHT22;11895;48.738;9.320;2022-10-23T01:04:36;10.50;99.90
23445;DHT22;11895;48.738;9.320;2022-10-23T01:13:15;10.50;99.90
23445;DHT22;11895;48.738;9.320;2022-10-23T01:16:16;10.50;99.90
23445;DHT22;11895;48.738;9.320;2022-10-23T01:21:59;10.50;99.90
23445;DHT22;11895;48.738;9.320;2022-10-23T01:29:02;10.40;99.90
23445;DHT22;11895;48.738;9.320;2022-10-23T01:32:10;10.40;99.90
23445;DHT22;11895;48.738;9.320;2022-10-23T01:37:39;10.40;99.90
23445;DHT22;11895;48.738;9.320;2022-10-23T01:40:19;10.40;99.90
23445;DHT22;11895;48.738;9.320;2022-10-23T01:42:55;10.30;99.90
23445;DHT22;11895;48.738;9.320;2022-10-23T01:45:35;10.30;99.90
23445;DHT22;11895;48.738;9.320;2022-10-23T01:48:14;10.30;99.90
23445;DHT22;11895;48.738;9.320;2022-10-23T01:50:49;10.20;99.90
23445;DHT22;11895;48.738;9.320;2022-10-23T01:53:19;10.30;99.90
23445;DHT22;11895;48.738;9.320;2022-10-23T01:55:48;10.30;99.90
23445;DHT22;11895;48.738;9.320;2022-10-23T01:58:22;10.30;99.90
23445;DHT22;11895;48.738;9.320;2022-10-23T02:00:57;10.30;99.90
23445;DHT22;11895;48.738;9.320;2022-10-23T02:03:30;10.30;99.90
23445;DHT22;11895;48.738;9.320;2022-10-23T02:06:01;10.20;99.90
23445;DHT22;11895;48.738;9.320;2022-10-23T02:08:30;10.20;99.90
23445;DHT22;11895;48.738;9.320;2022-10-23T02:14:05;10.30;99.90
23445;DHT22;11895;48.738;9.320;2022-10-23T02:16:51;10.40;99.90
23445;DHT22;11895;48.738;9.320;2022-10-23T02:19:34;10.40;99.90
23445;DHT22;11895;48.738;9.320;2022-10-23T02:22:28;10.40;99.90
23445;DHT22;11895;48.738;9.320;2022-10-23T02:25:09;10.40;99.90
23445;DHT22;11895;48.738;9.320;2022-10-23T02:27:51;10.30;99.90
23445;DHT22;11895;48.738;9.320;2022-10-23T02:30:27;10.30;99.90
23445;DHT22;11895;48.738;9.320;2022-10-23T02:33:07;10.30;99.90
23445;DHT22;11895;48.738;9.320;2022-10-23T02:35:38;10.30;99.90
23445;DHT22;11895;48.738;9.320;2022-10-23T02:38:39;10.30;99.90
23445;DHT22;11895;48.738;9.320;2022-10-23T02:45:08;10.20;99.90
23445;DHT22;11895;48.738;9.320;2022-10-23T02:56:24;10.40;99.90
23445;DHT22;11895;48.738;9.320;2022-10-23T02:59:34;10.40;99.90
23445;DHT22;11895;48.738;9.320;2022-10-23T03:02:18;10.40;99.90
23445;DHT22;11895;48.738;9.320;2022-10-23T03:04:53;10.20;99.90
23445;DHT22;11895;48.738;9.320;2022-10-23T03:07:25;10.10;99.90
23445;DHT22;11895;48.738;9.320;2022-10-23T03:10:00;10.10;99.90
23445;DHT22;11895;48.738;9.320;2022-10-23T03:12:29;10.10;99.90
23445;DHT22;11895;48.738;9.320;2022-10-23T03:14:58;10.00;99.90
23445;DHT22;11895;48.738;9.320;2022-10-23T03:17:25;10.00;99.90
23445;DHT22;11895;48.738;9.320;2022-10-23T03:19:56;10.00;99.90
23445;DHT22;11895;48.738;9.320;2022-10-23T03:22:23;10.10;99.90
23445;DHT22;11895;48.738;9.320;2022-10-23T03:24:51;10.10;99.90
23445;DHT22;11895;48.738;9.320;2022-10-23T03:27:18;10.20;99.90
23445;DHT22;11895;48.738;9.320;2022-10-23T03:29:45;10.10;99.90
23445;DHT22;11895;48.738;9.320;2022-10-23T03:32:14;10.10;99.90
23445;DHT22;11895;48.738;9.320;2022-10-23T03:34:41;10.10;99.90
23445;DHT22;11895;48.738;9.320;2022-10-23T03:37:08;10.10;99.90
23445;DHT22;11895;48.738;9.320;2022-10-23T03:39:36;10.10;99.90
23445;DHT22;11895;48.738;9.320;2022-10-23T03:42:03;10.10;99.90
23445;DHT22;11895;48.738;9.320;2022-10-23T03:44:30;10.20;99.90
23445;DHT22;11895;48.738;9.320;2022-10-23T03:46:59;10.20;99.90
23445;DHT22;11895;48.738;9.320;2022-10-23T03:49:27;10.40;99.90
23445;DHT22;11895;48.738;9.320;2022-10-23T03:52:01;10.40;99.90
23445;DHT22;11895;48.738;9.320;2022-10-23T03:54:28;10.50;99.90
23445;DHT22;11895;48.738;9.320;2022-10-23T03:56:56;10.50;99.90
23445;DHT22;11895;48.738;9.320;2022-10-23T03:59:25;10.40;99.90
23445;DHT22;11895;48.738;9.320;2022-10-23T04:01:53;10.30;99.90
23445;DHT22;11895;48.738;9.320;2022-10-23T04:04:24;10.30;99.90
23445;DHT22;11895;48.738;9.320;2022-10-23T04:06:51;10.30;99.90
23445;DHT22;11895;48.738;9.320;2022-10-23T04:09:19;10.40;99.90
23445;DHT22;11895;48.738;9.320;2022-10-23T04:11:46;10.40;99.90
23445;DHT22;11895;48.738;9.320;2022-10-23T04:14:13;10.40;99.90
23445;DHT22;11895;48.738;9.320;2022-10-23T04:16:41;10.30;99.90
23445;DHT22;11895;48.738;9.320;2022-10-23T04:19:08;10.30;99.90
23445;DHT22;11895;48.738;9.320;2022-10-23T04:21:35;10.20;99.90
23445;DHT22;11895;48.738;9.320;2022-10-23T04:24:03;10.20;99.90
23445;DHT22;11895;48.738;9.320;2022-10-23T04:26:31;10.20;99.90
23445;DHT22;11895;48.738;9.320;2022-10-23T04:28:58;10.30;99.90
23445;DHT22;11895;48.738;9.320;2022-10-23T04:31:51;10.20;99.90
23445;DHT22;11895;48.738;9.320;2022-10-23T04:34:18;10.20;99.90
23445;DHT22;11895;48.738;9.320;2022-10-23T04:36:45;10.20;99.90
23445;DHT22;11895;48.738;9.320;2022-10-23T04:39:38;10.30;99.90
23445;DHT22;11895;48.738;9.320;2022-10-23T04:42:05;10.20;99.90
23445;DHT22;11895;48.738;9.320;2022-10-23T04:44:32;10.20;99.90
23445;DHT22;11895;48.738;9.320;2022-10-23T04:46:59;10.20;99.90
23445;DHT22;11895;48.738;9.320;2022-10-23T04:49:27;10.30;99.90
23445;DHT22;11895;48.738;9.320;2022-10-23T04:52:16;10.30;99.90
23445;DHT22;11895;48.738;9.320;2022-10-23T04:55:18;10.40;99.90
23445;DHT22;11895;48.738;9.320;2022-10-23T04:58:05;10.50;99.90
23445;DHT22;11895;48.738;9.320;2022-10-23T05:00:32;10.60;99.90
23445;DHT22;11895;48.738;9.320;2022-10-23T05:03:02;10.60;99.90
23445;DHT22;11895;48.738;9.320;2022-10-23T05:05:35;10.50;99.90
23445;DHT22;11895;48.738;9.320;2022-10-23T05:08:25;10.50;99.90
23445;DHT22;11895;48.738;9.320;2022-10-23T05:11:18;10.50;99.90
23445;DHT22;11895;48.738;9.320;2022-10-23T05:13:48;10.40;99.90
23445;DHT22;11895;48.738;9.320;2022-10-23T05:19:04;10.40;99.90
23445;DHT22;11895;48.738;9.320;2022-10-23T05:21:38;10.50;99.90
23445;DHT22;11895;48.738;9.320;2022-10-23T05:24:07;10.50;99.90
23445;DHT22;11895;48.738;9.320;2022-10-23T05:26:38;10.50;99.90
23445;DHT22;11895;48.738;9.320;2022-10-23T05:29:07;10.40;99.90
23445;DHT22;11895;48.738;9.320;2022-10-23T05:31:34;10.40;99.90
23445;DHT22;11895;48.738;9.320;2022-10-23T05:34:12;10.40;99.90
23445;DHT22;11895;48.738;9.320;2022-10-23T05:36:43;10.30;99.90
23445;DHT22;11895;48.738;9.320;2022-10-23T05:39:36;10.40;99.90
23445;DHT22;11895;48.738;9.320;2022-10-23T05:42:09;10.70;99.90
23445;DHT22;11895;48.738;9.320;2022-10-23T05:44:37;10.70;99.90
23445;DHT22;11895;48.738;9.320;2022-10-23T05:47:17;10.50;99.90
23445;DHT22;11895;48.738;9.320;2022-10-23T05:50:19;10.60;99.90
23445;DHT22;11895;48.738;9.320;2022-10-23T05:53:05;10.70;99.90
23445;DHT22;11895;48.738;9.320;2022-10-23T05:55:47;10.60;99.90
23445;DHT22;11895;48.738;9.320;2022-10-23T05:58:35;10.60;99.90
23445;DHT22;11895;48.738;9.320;2022-10-23T06:01:13;10.70;99.90
23445;DHT22;11895;48.738;9.320;2022-10-23T06:03:58;10.60;99.90
23445;DHT22;11895;48.738;9.320;2022-10-23T06:06:46;10.60;99.90
23445;DHT22;11895;48.738;9.320;2022-10-23T06:09:15;10.60;99.90
23445;DHT22;11895;48.738;9.320;2022-10-23T06:11:45;10.60;99.90
23445;DHT22;11895;48.738;9.320;2022-10-23T06:14:18;10.50;99.90
23445;DHT22;11895;48.738;9.320;2022-10-23T06:16:48;10.50;99.90
23445;DHT22;11895;48.738;9.320;2022-10-23T06:19:15;10.50;99.90
23445;DHT22;11895;48.738;9.320;2022-10-23T06:21:43;10.50;99.90
23445;DHT22;11895;48.738;9.320;2022-10-23T06:24:13;10.40;99.90
23445;DHT22;11895;48.738;9.320;2022-10-23T06:26:50;10.60;99.90
23445;DHT22;11895;48.738;9.320;2022-10-23T06:29:31;10.70;99.90
23445;DHT22;11895;48.738;9.320;2022-10-23T06:31:59;10.60;99.90
23445;DHT22;11895;48.738;9.320;2022-10-23T06:34:26;10.70;99.90
23445;DHT22;11895;48.738;9.320;2022-10-23T06:36:54;10.60;99.90
23445;DHT22;11895;48.738;9.320;2022-10-23T06:39:51;10.50;99.90
23445;DHT22;11895;48.738;9.320;2022-10-23T06:42:24;10.60;99.90
23445;DHT22;11895;48.738;9.320;2022-10-23T06:44:54;10.70;99.90
23445;DHT22;11895;48.738;9.320;2022-10-23T06:47:51;10.80;99.90
23445;DHT22;11895;48.738;9.320;2022-10-23T06:50:39;10.80;99.90
23445;DHT22;11895;48.738;9.320;2022-10-23T06:53:11;10.90;99.90
23445;DHT22;11895;48.738;9.320;2022-10-23T06:55:45;11.00;99.90
23445;DHT22;11895;48.738;9.320;2022-10-23T06:58:19;11.10;99.90
23445;DHT22;11895;48.738;9.320;2022-10-23T07:01:13;11.10;99.90
23445;DHT22;11895;48.738;9.320;2022-10-23T07:03:43;11.20;99.90
23445;DHT22;11895;48.738;9.320;2022-10-23T07:06:11;11.30;99.90
23445;DHT22;11895;48.738;9.320;2022-10-23T07:08:39;11.50;99.90
23445;DHT22;11895;48.738;9.320;2022-10-23T07:11:26;11.60;99.90
23445;DHT22;11895;48.738;9.320;2022-10-23T07:13:55;11.60;99.90
23445;DHT22;11895;48.738;9.320;2022-10-23T07:16:23;11.80;99.90
23445;DHT22;11895;48.738;9.320;2022-10-23T07:18:56;11.80;99.90
23445;DHT22;11895;48.738;9.320;2022-10-23T07:21:30;11.80;99.90
23445;DHT22;11895;48.738;9.320;2022-10-23T07:24:21;11.90;99.90
23445;DHT22;11895;48.738;9.320;2022-10-23T07:26:50;12.00;99.90
23445;DHT22;11895;48.738;9.320;2022-10-23T07:29:18;12.10;99.90
23445;DHT22;11895;48.738;9.320;2022-10-23T07:31:47;12.20;99.90
23445;DHT22;11895;48.738;9.320;2022-10-23T07:34:33;12.30;99.90
23445;DHT22;11895;48.738;9.320;2022-10-23T07:37:37;12.50;99.90
23445;DHT22;11895;48.738;9.320;2022-10-23T07:40:06;12.50;99.90
23445;DHT22;11895;48.738;9.320;2022-10-23T07:42:41;12.50;99.90
23445;DHT22;11895;48.738;9.320;2022-10-23T07:45:09;12.60;99.90
23445;DHT22;11895;48.738;9.320;2022-10-23T07:47:41;12.70;99.90
23445;DHT22;11895;48.738;9.320;2022-10-23T07:50:11;12.80;99.90
23445;DHT22;11895;48.738;9.320;2022-10-23T07:52:38;12.90;99.90
23445;DHT22;11895;48.738;9.320;2022-10-23T07:55:09;13.00;99.90
23445;DHT22;11895;48.738;9.320;2022-10-23T07:57:43;13.00;99.90
23445;DHT22;11895;48.738;9.320;2022-10-23T08:00:22;13.10;99.90
23445;DHT22;11895;48.738;9.320;2022-10-23T08:03:05;13.20;99.90
23445;DHT22;11895;48.738;9.320;2022-10-23T08:05:33;13.40;99.90
23445;DHT22;11895;48.738;9.320;2022-10-23T08:08:02;13.40;99.90
23445;DHT22;11895;48.738;9.320;2022-10-23T08:10:30;13.40;99.90
23445;DHT22;11895;48.738;9.320;2022-10-23T08:12:58;13.40;99.90
23445;DHT22;11895;48.738;9.320;2022-10-23T08:15:47;13.50;99.90
23445;DHT22;11895;48.738;9.320;2022-10-23T08:18:34;13.70;99.90
23445;DHT22;11895;48.738;9.320;2022-10-23T08:21:03;13.60;99.90
23445;DHT22;11895;48.738;9.320;2022-10-23T08:23:32;13.40;99.90
23445;DHT22;11895;48.738;9.320;2022-10-23T08:26:01;13.40;99.90
23445;DHT22;11895;48.738;9.320;2022-10-23T08:28:31;13.40;99.90
23445;DHT22;11895;48.738;9.320;2022-10-23T08:31:24;13.50;99.90
23445;DHT22;11895;48.738;9.320;2022-10-23T08:34:14;13.50;99.90
23445;DHT22;11895;48.738;9.320;2022-10-23T08:36:44;13.90;99.90
23445;DHT22;11895;48.738;9.320;2022-10-23T08:39:18;14.00;99.90
23445;DHT22;11895;48.738;9.320;2022-10-23T08:42:21;14.20;99.90
23445;DHT22;11895;48.738;9.320;2022-10-23T08:48:27;14.50;99.90
23445;DHT22;11895;48.738;9.320;2022-10-23T08:51:42;14.50;99.90
23445;DHT22;11895;48.738;9.320;2022-10-23T08:57:16;14.50;99.90
23445;DHT22;11895;48.738;9.320;2022-10-23T08:59:57;14.70;99.90
23445;DHT22;11895;48.738;9.320;2022-10-23T09:02:31;14.80;99.90
23445;DHT22;11895;48.738;9.320;2022-10-23T09:17:57;15.10;99.90
23445;DHT22;11895;48.738;9.320;2022-10-23T09:20:34;15.30;99.90
23445;DHT22;11895;48.738;9.320;2022-10-23T09:23:16;15.40;99.90
23445;DHT22;11895;48.738;9.320;2022-10-23T09:25:50;15.70;99.90
23445;DHT22;11895;48.738;9.320;2022-10-23T09:28:44;15.80;99.90
23445;DHT22;11895;48.738;9.320;2022-10-23T09:31:18;16.10;99.90
23445;DHT22;11895;48.738;9.320;2022-10-23T09:34:15;16.40;99.90
23445;DHT22;11895;48.738;9.320;2022-10-23T09:37:16;16.70;99.90
23445;DHT22;11895;48.738;9.320;2022-10-23T09:42:57;17.20;99.90
23445;DHT22;11895;48.738;9.320;2022-10-23T09:45:34;17.60;99.90
23445;DHT22;11895;48.738;9.320;2022-10-23T09:48:11;17.80;99.90
23445;DHT22;11895;48.738;9.320;2022-10-23T09:50:49;18.10;99.90
23445;DHT22;11895;48.738;9.320;2022-10-23T09:53:34;18.30;99.90
23445;DHT22;11895;48.738;9.320;2022-10-23T09:56:26;18.30;99.90
23445;DHT22;11895;48.738;9.320;2022-10-23T09:59:27;18.70;99.90
23445;DHT22;11895;48.738;9.320;2022-10-23T10:01:59;19.00;99.90
23445;DHT22;11895;48.738;9.320;2022-10-23T10:04:51;19.20;99.90
23445;DHT22;11895;48.738;9.320;2022-10-23T10:07:24;19.40;99.90
23445;DHT22;11895;48.738;9.320;2022-10-23T10:09:59;19.50;99.90
23445;DHT22;11895;48.738;9.320;2022-10-23T10:15:36;19.80;99.90
23445;DHT22;11895;48.738;9.320;2022-10-23T10:18:27;19.80;99.90
23445;DHT22;11895;48.738;9.320;2022-10-23T10:21:26;19.90;99.90
23445;DHT22;11895;48.738;9.320;2022-10-23T10:24:21;20.00;99.90
23445;DHT22;11895;48.738;9.320;2022-10-23T10:27:44;20.20;99.90
23445;DHT22;11895;48.738;9.320;2022-10-23T10:36:50;20.90;99.90
23445;DHT22;11895;48.738;9.320;2022-10-23T10:45:40;21.60;99.90
23445;DHT22;11895;48.738;9.320;2022-10-23T10:48:31;21.70;99.90
23445;DHT22;11895;48.738;9.320;2022-10-23T10:57:34;22.20;99.90
23445;DHT22;11895;48.738;9.320;2022-10-23T11:00:13;22.40;99.90
23445;DHT22;11895;48.738;9.320;2022-10-23T11:02:47;22.60;99.90
23445;DHT22;11895;48.738;9.320;2022-10-23T11:05:33;22.80;99.90
23445;DHT22;11895;48.738;9.320;2022-10-23T11:08:17;23.00;99.90
23445;DHT22;11895;48.738;9.320;2022-10-23T11:10:57;23.10;99.90
23445;DHT22;11895;48.738;9.320;2022-10-23T11:13:39;23.30;99.90
23445;DHT22;11895;48.738;9.320;2022-10-23T11:22:01;23.80;99.90
23445;DHT22;11895;48.738;9.320;2022-10-23T11:28:27;23.90;99.90
23445;DHT22;11895;48.738;9.320;2022-10-23T11:34:03;23.70;99.90
23445;DHT22;11895;48.738;9.320;2022-10-23T11:37:26;23.60;99.90
23445;DHT22;11895;48.738;9.320;2022-10-23T11:42:54;23.50;99.90
23445;DHT22;11895;48.738;9.320;2022-10-23T11:48:34;23.30;99.90
23445;DHT22;11895;48.738;9.320;2022-10-23T11:56:54;23.40;99.90
23445;DHT22;11895;48.738;9.320;2022-10-23T12:02:34;23.70;99.90
23445;DHT22;11895;48.738;9.320;2022-10-23T12:05:05;24.00;99.90
23445;DHT22;11895;48.738;9.320;2022-10-23T12:07:59;24.30;99.90
23445;DHT22;11895;48.738;9.320;2022-10-23T12:10:32;24.70;99.90
23445;DHT22;11895;48.738;9.320;2022-10-23T12:13:04;24.90;99.90
23445;DHT22;11895;48.738;9.320;2022-10-23T12:15:54;25.10;99.90
23445;DHT22;11895;48.738;9.320;2022-10-23T12:18:26;25.30;99.90
23445;DHT22;11895;48.738;9.320;2022-10-23T12:20:57;25.40;99.90
23445;DHT22;11895;48.738;9.320;2022-10-23T12:30:02;26.00;99.90
23445;DHT22;11895;48.738;9.320;2022-10-23T12:33:33;25.60;99.90
23445;DHT22;11895;48.738;9.320;2022-10-23T12:42:02;25.90;99.90
23445;DHT22;11895;48.738;9.320;2022-10-23T12:44:32;26.10;99.90
23445;DHT22;11895;48.738;9.320;2022-10-23T12:47:01;26.20;99.40
23445;DHT22;11895;48.738;9.320;2022-10-23T12:49:55;26.30;99.60
23445;DHT22;11895;48.738;9.320;2022-10-23T12:52:22;26.50;99.90
23445;DHT22;11895;48.738;9.320;2022-10-23T12:54:52;26.90;98.10
23445;DHT22;11895;48.738;9.320;2022-10-23T13:00:00;28.20;96.30
23445;DHT22;11895;48.738;9.320;2022-10-23T13:02:36;28.90;94.60
23445;DHT22;11895;48.738;9.320;2022-10-23T13:05:10;29.80;93.70
23445;DHT22;11895;48.738;9.320;2022-10-23T13:07:45;30.70;92.00
23445;DHT22;11895;48.738;9.320;2022-10-23T13:10:19;31.60;90.50
23445;DHT22;11895;48.738;9.320;2022-10-23T13:13:02;32.40;88.10
23445;DHT22;11895;48.738;9.320;2022-10-23T13:15:43;33.10;83.40
23445;DHT22;11895;48.738;9.320;2022-10-23T13:18:13;33.70;81.00
23445;DHT22;11895;48.738;9.320;2022-10-23T13:23:33;34.80;76.60
23445;DHT22;11895;48.738;9.320;2022-10-23T13:28:43;35.50;71.30
23445;DHT22;11895;48.738;9.320;2022-10-23T13:33:40;35.40;69.40
23445;DHT22;11895;48.738;9.320;2022-10-23T13:38:44;34.60;69.10
23445;DHT22;11895;48.738;9.320;2022-10-23T13:42:07;33.40;70.90
23445;DHT22;11895;48.738;9.320;2022-10-23T13:44:37;32.20;72.90
23445;DHT22;11895;48.738;9.320;2022-10-23T13:47:12;31.70;75.40
23445;DHT22;11895;48.738;9.320;2022-10-23T13:49:41;31.70;76.00
23445;DHT22;11895;48.738;9.320;2022-10-23T13:52:10;31.10;76.30
23445;DHT22;11895;48.738;9.320;2022-10-23T13:54:40;30.50;77.50
23445;DHT22;11895;48.738;9.320;2022-10-23T13:57:13;29.70;79.00
23445;DHT22;11895;48.738;9.320;2022-10-23T13:59:41;29.00;80.40
23445;DHT22;11895;48.738;9.320;2022-10-23T14:02:26;28.30;83.20
23445;DHT22;11895;48.738;9.320;2022-10-23T14:04:54;27.80;84.10
23445;DHT22;11895;48.738;9.320;2022-10-23T14:07:21;27.30;84.80
23445;DHT22;11895;48.738;9.320;2022-10-23T14:09:48;26.90;86.20
23445;DHT22;11895;48.738;9.320;2022-10-23T14:12:16;26.50;88.00
23445;DHT22;11895;48.738;9.320;2022-10-23T14:14:44;26.10;88.20
23445;DHT22;11895;48.738;9.320;2022-10-23T14:17:11;25.80;89.40
23445;DHT22;11895;48.738;9.320;2022-10-23T14:19:39;25.50;90.50
23445;DHT22;11895;48.738;9.320;2022-10-23T14:22:06;25.20;91.00
23445;DHT22;11895;48.738;9.320;2022-10-23T14:24:33;24.90;91.60
23445;DHT22;11895;48.738;9.320;2022-10-23T14:27:01;24.70;92.00
23445;DHT22;11895;48.738;9.320;2022-10-23T14:29:29;24.50;92.80
23445;DHT22;11895;48.738;9.320;2022-10-23T14:31:56;24.40;94.30
23445;DHT22;11895;48.738;9.320;2022-10-23T14:34:24;24.20;94.90
23445;DHT22;11895;48.738;9.320;2022-10-23T14:36:53;24.10;94.90
23445;DHT22;11895;48.738;9.320;2022-10-23T14:39:34;23.90;95.40
23445;DHT22;11895;48.738;9.320;2022-10-23T14:42:02;23.80;95.70
23445;DHT22;11895;48.738;9.320;2022-10-23T14:44:29;23.70;96.00
23445;DHT22;11895;48.738;9.320;2022-10-23T14:46:57;23.60;96.70
23445;DHT22;11895;48.738;9.320;2022-10-23T14:49:25;23.50;96.50
23445;DHT22;11895;48.738;9.320;2022-10-23T14:51:52;23.50;97.00
23445;DHT22;11895;48.738;9.320;2022-10-23T14:54:19;23.40;98.00
23445;DHT22;11895;48.738;9.320;2022-10-23T14:56:46;23.30;98.90
23445;DHT22;11895;48.738;9.320;2022-10-23T14:59:14;23.10;99.70
23445;DHT22;11895;48.738;9.320;2022-10-23T15:01:43;23.00;99.90
23445;DHT22;11895;48.738;9.320;2022-10-23T15:04:14;22.90;99.90
23445;DHT22;11895;48.738;9.320;2022-10-23T15:06:43;22.90;99.90
23445;DHT22;11895;48.738;9.320;2022-10-23T15:09:13;22.80;99.90
23445;DHT22;11895;48.738;9.320;2022-10-23T15:11:41;22.80;99.90
23445;DHT22;11895;48.738;9.320;2022-10-23T15:14:08;22.90;99.90
23445;DHT22;11895;48.738;9.320;2022-10-23T15:16:36;23.00;99.90
23445;DHT22;11895;48.738;9.320;2022-10-23T15:19:12;23.30;99.90
23445;DHT22;11895;48.738;9.320;2022-10-23T15:21:46;23.60;99.90
23445;DHT22;11895;48.738;9.320;2022-10-23T15:24:15;23.90;99.90
23445;DHT22;11895;48.738;9.320;2022-10-23T15:26:43;23.90;99.90
23445;DHT22;11895;48.738;9.320;2022-10-23T15:29:11;23.90;99.90
23445;DHT22;11895;48.738;9.320;2022-10-23T15:31:43;23.90;99.90
23445;DHT22;11895;48.738;9.320;2022-10-23T15:34:22;23.80;99.90
23445;DHT22;11895;48.738;9.320;2022-10-23T15:36:55;23.50;99.90
23445;DHT22;11895;48.738;9.320;2022-10-23T15:39:27;23.40;99.90
23445;DHT22;11895;48.738;9.320;2022-10-23T15:42:01;23.10;99.90
23445;DHT22;11895;48.738;9.320;2022-10-23T15:44:31;23.00;99.90
23445;DHT22;11895;48.738;9.320;2022-10-23T15:46:59;22.80;99.90
23445;DHT22;11895;48.738;9.320;2022-10-23T15:49:27;22.60;99.90
23445;DHT22;11895;48.738;9.320;2022-10-23T15:51:55;22.40;99.90
23445;DHT22;11895;48.738;9.320;2022-10-23T15:54:23;22.30;99.90
23445;DHT22;11895;48.738;9.320;2022-10-23T15:56:56;22.10;99.90
23445;DHT22;11895;48.738;9.320;2022-10-23T15:59:25;22.00;99.90
23445;DHT22;11895;48.738;9.320;2022-10-23T16:01:53;21.90;99.90
23445;DHT22;11895;48.738;9.320;2022-10-23T16:04:21;21.90;99.90
23445;DHT22;11895;48.738;9.320;2022-10-23T16:06:50;21.70;99.90
23445;DHT22;11895;48.738;9.320;2022-10-23T16:09:18;21.60;99.90
23445;DHT22;11895;48.738;9.320;2022-10-23T16:11:45;21.50;99.90
23445;DHT22;11895;48.738;9.320;2022-10-23T16:14:15;21.20;99.90
23445;DHT22;11895;48.738;9.320;2022-10-23T16:16:43;21.00;99.90
23445;DHT22;11895;48.738;9.320;2022-10-23T16:19:11;21.00;99.90
23445;DHT22;11895;48.738;9.320;2022-10-23T16:21:39;20.70;99.90
23445;DHT22;11895;48.738;9.320;2022-10-23T16:24:08;20.40;99.90
23445;DHT22;11895;48.738;9.320;2022-10-23T16:26:36;20.20;99.90
23445;DHT22;11895;48.738;9.320;2022-10-23T16:29:07;20.10;99.90
23445;DHT22;11895;48.738;9.320;2022-10-23T16:31:35;19.90;99.90
23445;DHT22;11895;48.738;9.320;2022-10-23T16:34:04;19.80;99.90
23445;DHT22;11895;48.738;9.320;2022-10-23T16:36:32;19.80;99.90
23445;DHT22;11895;48.738;9.320;2022-10-23T16:39:10;19.70;99.90
23445;DHT22;11895;48.738;9.320;2022-10-23T16:42:04;19.70;99.90
23445;DHT22;11895;48.738;9.320;2022-10-23T16:44:45;19.60;99.90
23445;DHT22;11895;48.738;9.320;2022-10-23T16:47:13;19.50;99.90
23445;DHT22;11895;48.738;9.320;2022-10-23T16:49:40;19.40;99.90
23445;DHT22;11895;48.738;9.320;2022-10-23T16:52:07;19.50;99.90
23445;DHT22;11895;48.738;9.320;2022-10-23T16:54:35;19.50;99.90
23445;DHT22;11895;48.738;9.320;2022-10-23T16:57:02;19.50;99.90
23445;DHT22;11895;48.738;9.320;2022-10-23T16:59:29;19.50;99.90
23445;DHT22;11895;48.738;9.320;2022-10-23T17:01:57;19.50;99.90
23445;DHT22;11895;48.738;9.320;2022-10-23T17:04:24;19.40;99.90
23445;DHT22;11895;48.738;9.320;2022-10-23T17:06:54;19.30;99.90
23445;DHT22;11895;48.738;9.320;2022-10-23T17:09:22;19.20;99.90
23445;DHT22;11895;48.738;9.320;2022-10-23T17:11:52;19.10;99.90
23445;DHT22;11895;48.738;9.320;2022-10-23T17:14:20;19.10;99.90
23445;DHT22;11895;48.738;9.320;2022-10-23T17:16:51;19.10;99.90
23445;DHT22;11895;48.738;9.320;2022-10-23T17:19:21;19.00;99.90
23445;DHT22;11895;48.738;9.320;2022-10-23T17:22:11;19.00;99.90
23445;DHT22;11895;48.738;9.320;2022-10-23T17:24:40;18.90;99.90
23445;DHT22;11895;48.738;9.320;2022-10-23T17:27:13;18.90;99.90
23445;DHT22;11895;48.738;9.320;2022-10-23T17:29:41;18.90;99.90
23445;DHT22;11895;48.738;9.320;2022-10-23T17:32:08;18.90;99.90
23445;DHT22;11895;48.738;9.320;2022-10-23T17:34:36;18.90;99.90
23445;DHT22;11895;48.738;9.320;2022-10-23T17:37:03;18.90;99.90
23445;DHT22;11895;48.738;9.320;2022-10-23T17:39:31;18.90;99.90
23445;DHT22;11895;48.738;9.320;2022-10-23T17:41:59;18.90;99.90
23445;DHT22;11895;48.738;9.320;2022-10-23T17:44:26;18.90;99.90
23445;DHT22;11895;48.738;9.320;2022-10-23T17:46:54;18.80;99.90
23445;DHT22;11895;48.738;9.320;2022-10-23T17:49:23;18.70;99.90
23445;DHT22;11895;48.738;9.320;2022-10-23T17:51:52;18.70;99.90
23445;DHT22;11895;48.738;9.320;2022-10-23T17:54:23;18.70;99.90
23445;DHT22;11895;48.738;9.320;2022-10-23T17:56:52;18.90;99.90
23445;DHT22;11895;48.738;9.320;2022-10-23T17:59:20;18.90;99.90
23445;DHT22;11895;48.738;9.320;2022-10-23T18:01:48;18.90;99.90
23445;DHT22;11895;48.738;9.320;2022-10-23T18:04:18;18.80;99.90
23445;DHT22;11895;48.738;9.320;2022-10-23T18:06:49;18.70;99.90
23445;DHT22;11895;48.738;9.320;2022-10-23T18:09:22;18.70;99.90
23445;DHT22;11895;48.738;9.320;2022-10-23T18:11:49;18.50;99.90
23445;DHT22;11895;48.738;9.320;2022-10-23T18:14:19;18.50;99.90
23445;DHT22;11895;48.738;9.320;2022-10-23T18:16:48;18.70;99.90
23445;DHT22;11895;48.738;9.320;2022-10-23T18:19:17;18.60;99.90
23445;DHT22;11895;48.738;9.320;2022-10-23T18:21:46;18.50;99.90
23445;DHT22;11895;48.738;9.320;2022-10-23T18:24:14;18.30;99.90
23445;DHT22;11895;48.738;9.320;2022-10-23T18:26:42;18.30;99.90
23445;DHT22;11895;48.738;9.320;2022-10-23T18:29:12;18.30;99.90
23445;DHT22;11895;48.738;9.320;2022-10-23T18:31:41;18.30;99.90